Time;durP1;ratioP1;P1;durP2;ratioP2;P2;SDS_P1;SDS_P2;PMS_P1;PMS_P2;Temp;Humidity;BMP_temperature;BMP_pressure;BME280_temperature;BME280_humidity;BME280_pressure;Samples;Min_cycle;Max_cycle;Signal;HPM_P1;HPM_P2
2022/04/12 00:00:15;;;;;;;1.90;0.77;;;9.70;64.10;;;;;;4995362;28;20072;-83
2022/04/12 00:02:42;;;;;;;2.03;0.90;;;9.70;64.20;;;;;;4995084;28;20046;-83
2022/04/12 00:05:11;;;;;;;2.22;1.08;;;9.70;64.30;;;;;;4979262;28;20038;-83
2022/04/12 00:07:56;;;;;;;2.00;1.08;;;9.70;64.40;;;;;;4991934;28;20121;-83
2022/04/12 00:10:24;;;;;;;2.97;1.20;;;9.70;64.50;;;;;;5013648;28;20069;-83
2022/04/12 00:12:51;;;;;;;3.13;1.00;;;9.70;64.50;;;;;;4994866;28;20096;-83
2022/04/12 00:15:21;;;;;;;2.65;1.13;;;9.70;64.50;;;;;;4994186;28;20049;-83
2022/04/12 00:20:36;;;;;;;3.33;1.35;;;9.70;64.70;;;;;;4994140;28;20061;-83
2022/04/12 00:23:04;;;;;;;2.05;1.00;;;9.60;64.80;;;;;;4979931;28;20057;-83
2022/04/12 00:25:32;;;;;;;1.70;0.80;;;9.60;64.90;;;;;;4982422;28;20054;-83
2022/04/12 00:27:59;;;;;;;2.20;1.13;;;9.60;64.90;;;;;;4995117;28;20046;-83
2022/04/12 00:30:28;;;;;;;2.65;1.08;;;9.60;65.00;;;;;;4976003;28;20046;-83
2022/04/12 00:32:55;;;;;;;1.63;0.80;;;9.60;65.00;;;;;;4998155;28;20054;-83
2022/04/12 00:35:23;;;;;;;1.75;0.70;;;9.60;65.10;;;;;;4997930;28;20137;-84
2022/04/12 00:37:50;;;;;;;1.92;0.80;;;9.60;65.10;;;;;;4997257;28;20045;-83
2022/04/12 00:40:24;;;;;;;1.70;0.80;;;9.60;65.20;;;;;;4981607;28;20406;-83
2022/04/12 00:42:52;;;;;;;2.20;1.10;;;9.60;65.30;;;;;;4981933;28;20050;-83
2022/04/12 00:45:20;;;;;;;3.10;1.40;;;9.50;65.30;;;;;;4986367;28;20038;-82
2022/04/12 00:47:47;;;;;;;2.10;0.95;;;9.50;65.30;;;;;;4978506;28;20093;-83
2022/04/12 00:50:15;;;;;;;1.38;0.80;;;9.50;65.40;;;;;;4968830;28;20070;-83
2022/04/12 00:52:45;;;;;;;2.33;1.10;;;9.50;65.50;;;;;;5005891;28;20058;-83
2022/04/12 00:55:12;;;;;;;2.08;0.90;;;9.50;65.50;;;;;;4981627;28;20498;-83
2022/04/12 00:57:41;;;;;;;2.47;1.20;;;9.50;65.60;;;;;;4997704;28;20078;-83
2022/04/12 01:00:10;;;;;;;3.47;1.17;;;9.50;65.60;;;;;;4997684;28;20045;-83
2022/04/12 01:02:39;;;;;;;2.40;1.05;;;9.50;65.70;;;;;;4992593;28;20049;-83
2022/04/12 01:05:07;;;;;;;3.03;1.40;;;9.40;66.30;;;;;;4981354;28;20048;-82
2022/04/12 01:07:35;;;;;;;2.72;1.48;;;9.40;65.80;;;;;;4981460;28;20046;-83
2022/04/12 01:10:04;;;;;;;2.72;1.33;;;9.40;65.80;;;;;;4994988;28;20042;-82
2022/04/12 01:12:38;;;;;;;2.38;1.10;;;9.40;65.90;;;;;;4981466;28;20092;-83
2022/04/12 01:15:15;;;;;;;1.92;1.00;;;9.30;65.90;;;;;;4998055;28;20038;-83
2022/04/12 01:17:44;;;;;;;2.70;0.95;;;9.30;65.90;;;;;;5004429;28;20045;-83
2022/04/12 01:20:13;;;;;;;2.65;1.23;;;9.30;66.00;;;;;;4991171;28;20042;-83
2022/04/12 01:22:54;;;;;;;2.47;1.02;;;9.30;66.00;;;;;;4996015;28;20415;-83
2022/04/12 01:25:22;;;;;;;2.03;0.82;;;9.30;66.00;;;;;;4981002;28;20064;-84
2022/04/12 01:27:49;;;;;;;1.80;1.00;;;9.20;66.10;;;;;;4988085;28;20058;-80
2022/04/12 01:30:16;;;;;;;2.17;1.05;;;9.20;66.20;;;;;;4989072;28;20066;-80
2022/04/12 01:32:43;;;;;;;1.58;0.60;;;9.20;66.30;;;;;;4999646;28;20498;-82
2022/04/12 01:35:11;;;;;;;2.00;0.98;;;9.20;66.40;;;;;;4995306;28;20037;-83
2022/04/12 01:37:38;;;;;;;2.03;0.85;;;9.20;66.60;;;;;;4977002;28;20048;-83
2022/04/12 01:40:06;;;;;;;1.33;0.80;;;9.10;66.60;;;;;;4992924;28;20053;-83
2022/04/12 01:42:33;;;;;;;2.53;1.10;;;9.10;66.60;;;;;;4975320;28;20514;-83
2022/04/12 01:45:00;;;;;;;1.75;0.63;;;9.10;66.70;;;;;;4980386;28;20048;-83
2022/04/12 01:47:27;;;;;;;2.40;0.90;;;9.10;66.70;;;;;;4996955;28;20132;-83
2022/04/12 01:49:54;;;;;;;2.35;0.90;;;9.10;66.60;;;;;;4983927;28;20070;-83
2022/04/12 01:52:22;;;;;;;2.40;0.73;;;9.10;66.70;;;;;;4994528;28;20054;-82
2022/04/12 01:54:50;;;;;;;2.30;1.10;;;9.10;66.70;;;;;;4982041;28;20055;-83
2022/04/12 01:57:17;;;;;;;1.95;0.82;;;9.00;66.80;;;;;;4993728;28;20065;-83
2022/04/12 01:59:46;;;;;;;1.98;0.80;;;9.00;66.90;;;;;;5004533;28;20061;-83
2022/04/12 02:02:13;;;;;;;2.65;0.88;;;9.00;66.90;;;;;;4990272;28;20097;-83
2022/04/12 02:04:43;;;;;;;2.45;1.08;;;9.00;66.90;;;;;;4997560;28;20474;-84
2022/04/12 02:07:11;;;;;;;2.65;0.77;;;9.00;67.00;;;;;;4996725;28;20042;-83
2022/04/12 02:09:39;;;;;;;2.75;1.00;;;9.00;67.00;;;;;;4969935;28;20096;-80
2022/04/12 02:12:06;;;;;;;1.90;0.80;;;9.00;67.10;;;;;;4995975;28;20409;-80
2022/04/12 02:14:33;;;;;;;2.10;1.00;;;9.00;67.20;;;;;;4979973;28;20406;-80
2022/04/12 02:17:00;;;;;;;2.40;0.90;;;8.90;67.20;;;;;;4987670;28;20080;-80
2022/04/12 02:19:27;;;;;;;1.85;0.95;;;8.90;67.40;;;;;;5000624;28;20038;-79
2022/04/12 02:21:54;;;;;;;1.98;0.90;;;8.90;67.40;;;;;;5005697;28;20510;-80
2022/04/12 02:24:21;;;;;;;2.47;0.75;;;8.90;67.40;;;;;;4995385;28;20137;-79
2022/04/12 02:26:51;;;;;;;1.83;0.88;;;8.90;67.50;;;;;;5003229;28;20118;-79
2022/04/12 02:29:18;;;;;;;1.65;0.80;;;8.90;67.60;;;;;;5016175;28;20096;-80
2022/04/12 02:31:45;;;;;;;2.35;1.08;;;8.90;67.70;;;;;;4995498;28;20048;-79
2022/04/12 02:34:12;;;;;;;1.85;0.93;;;8.90;67.60;;;;;;4995486;28;20061;-80
2022/04/12 02:36:39;;;;;;;2.55;0.88;;;8.90;67.60;;;;;;4995241;28;20054;-80
2022/04/12 02:39:06;;;;;;;2.40;0.80;;;8.90;67.60;;;;;;4997886;28;20041;-79
2022/04/12 02:41:34;;;;;;;1.73;0.80;;;8.90;67.60;;;;;;4998969;28;20155;-80
2022/04/12 02:44:01;;;;;;;2.30;0.90;;;8.90;67.60;;;;;;4995961;28;20038;-80
2022/04/12 02:46:28;;;;;;;1.95;0.90;;;8.90;67.50;;;;;;4997795;28;20053;-80
2022/04/12 02:48:55;;;;;;;2.03;1.05;;;8.90;67.50;;;;;;4995122;28;20088;-79
2022/04/12 02:51:22;;;;;;;2.08;0.90;;;8.90;67.60;;;;;;4985280;28;20050;-83
2022/04/12 02:53:49;;;;;;;2.22;0.90;;;8.90;67.50;;;;;;4997280;28;20058;-83
2022/04/12 02:56:16;;;;;;;2.00;0.80;;;8.90;67.50;;;;;;4994715;28;20049;-83
2022/04/12 02:58:43;;;;;;;1.80;0.82;;;8.90;67.50;;;;;;4979722;28;20053;-84
2022/04/12 03:01:10;;;;;;;1.55;0.77;;;8.90;67.60;;;;;;4995692;28;20042;-84
2022/04/12 03:03:38;;;;;;;1.75;0.63;;;8.90;67.70;;;;;;4995956;28;20525;-83
2022/04/12 03:06:05;;;;;;;2.17;0.70;;;8.80;67.60;;;;;;5007514;28;20037;-83
2022/04/12 03:08:32;;;;;;;1.95;0.90;;;8.80;67.70;;;;;;4987040;28;20478;-83
2022/04/12 03:10:59;;;;;;;2.67;1.27;;;8.80;67.70;;;;;;4992057;28;20152;-83
2022/04/12 03:13:26;;;;;;;2.30;0.95;;;8.80;67.70;;;;;;4978304;28;20049;-80
2022/04/12 03:15:53;;;;;;;2.03;1.00;;;8.80;67.70;;;;;;5002934;28;20091;-80
2022/04/12 03:18:20;;;;;;;1.73;0.82;;;8.80;67.80;;;;;;4995043;28;20418;-79
2022/04/12 03:20:51;;;;;;;2.35;1.08;;;8.80;67.70;;;;;;5006366;28;20054;-79
2022/04/12 03:23:19;;;;;;;1.60;0.88;;;8.70;67.80;;;;;;4990424;28;20843;-80
2022/04/12 03:25:46;;;;;;;2.40;0.70;;;8.70;67.80;;;;;;4998494;28;20466;-79
2022/04/12 03:28:14;;;;;;;2.40;0.90;;;8.70;67.90;;;;;;4999768;28;20045;-79
2022/04/12 03:30:43;;;;;;;2.05;0.90;;;8.70;68.00;;;;;;5001594;28;20046;-79
2022/04/12 03:33:10;;;;;;;2.53;1.00;;;8.70;68.10;;;;;;4991740;28;20046;-79
2022/04/12 03:35:38;;;;;;;2.20;0.95;;;8.60;68.10;;;;;;4982837;28;20073;-79
2022/04/12 03:38:05;;;;;;;3.85;0.90;;;8.60;68.10;;;;;;4995109;28;20077;-79
2022/04/12 03:40:32;;;;;;;2.95;0.93;;;8.60;68.10;;;;;;4978205;28;20057;-79
2022/04/12 03:43:01;;;;;;;1.98;0.90;;;8.60;68.20;;;;;;4993325;28;20050;-79
2022/04/12 03:45:28;;;;;;;2.63;0.98;;;8.50;68.20;;;;;;4973729;28;20108;-79
2022/04/12 03:47:56;;;;;;;2.08;1.00;;;8.50;68.30;;;;;;4996832;28;20041;-79
2022/04/12 03:50:24;;;;;;;2.03;0.82;;;8.50;68.40;;;;;;5005337;28;20046;-79
2022/04/12 03:52:52;;;;;;;2.22;0.85;;;8.50;68.40;;;;;;4997361;28;20085;-83
2022/04/12 03:55:30;;;;;;;1.38;0.63;;;8.50;68.50;;;;;;4993474;28;20057;-83
2022/04/12 03:57:58;;;;;;;1.60;0.65;;;8.40;68.50;;;;;;4983584;28;20050;-83
2022/04/12 04:00:26;;;;;;;2.78;1.20;;;8.40;68.60;;;;;;5006842;28;20383;-83
2022/04/12 04:02:53;;;;;;;2.15;1.00;;;8.40;68.60;;;;;;5001604;28;20045;-83
2022/04/12 04:05:21;;;;;;;2.00;0.80;;;8.40;68.70;;;;;;4997923;28;20458;-83
2022/04/12 04:07:49;;;;;;;2.05;0.90;;;8.40;68.70;;;;;;4996397;28;20402;-83
2022/04/12 04:10:19;;;;;;;1.95;0.77;;;8.40;68.80;;;;;;5008357;28;20049;-83
2022/04/12 04:12:47;;;;;;;2.65;0.90;;;8.40;68.80;;;;;;5006402;28;20140;-83
2022/04/12 04:15:15;;;;;;;3.05;1.10;;;8.40;68.70;;;;;;5000428;28;20068;-83
2022/04/12 04:17:42;;;;;;;1.75;0.70;;;8.40;69.30;;;;;;5000806;28;20049;-79
2022/04/12 04:20:11;;;;;;;2.03;0.90;;;8.40;68.70;;;;;;4984116;28;20124;-79
2022/04/12 04:22:40;;;;;;;2.03;0.88;;;8.40;68.70;;;;;;4997453;28;20092;-79
2022/04/12 04:25:09;;;;;;;2.40;0.93;;;8.40;68.80;;;;;;4982514;28;20042;-83
2022/04/12 04:27:36;;;;;;;1.58;0.60;;;8.40;68.90;;;;;;5005192;28;20050;-83
2022/04/12 04:30:07;;;;;;;1.65;0.60;;;8.40;68.90;;;;;;5013646;28;20052;-83
2022/04/12 04:32:35;;;;;;;1.40;0.70;;;8.40;69.00;;;;;;5001826;28;20410;-83
2022/04/12 04:35:04;;;;;;;2.15;0.73;;;8.40;69.10;;;;;;4994928;28;20046;-83
2022/04/12 04:37:31;;;;;;;2.33;1.25;;;8.30;69.10;;;;;;5004321;28;20543;-83
2022/04/12 04:39:58;;;;;;;1.27;0.70;;;8.40;69.20;;;;;;5017890;28;20061;-83
2022/04/12 04:42:27;;;;;;;1.10;0.50;;;8.30;69.10;;;;;;5034539;28;20088;-83
2022/04/12 04:44:54;;;;;;;1.77;0.90;;;8.30;69.10;;;;;;5001590;28;20053;-83
2022/04/12 04:47:21;;;;;;;2.25;1.00;;;8.40;69.20;;;;;;5014133;28;20513;-83
2022/04/12 04:49:48;;;;;;;2.15;1.00;;;8.40;69.20;;;;;;4989614;28;20095;-83
2022/04/12 04:52:15;;;;;;;2.42;0.80;;;8.40;69.20;;;;;;4984859;28;20070;-83
2022/04/12 04:54:42;;;;;;;2.85;1.13;;;8.40;69.20;;;;;;4987872;28;20049;-83
2022/04/12 04:57:09;;;;;;;2.92;1.10;;;8.40;69.20;;;;;;5007038;28;20056;-83
2022/04/12 04:59:36;;;;;;;3.67;1.23;;;8.40;69.10;;;;;;5007885;28;20069;-83
2022/04/12 05:02:03;;;;;;;2.45;1.15;;;8.40;69.10;;;;;;5015813;28;20045;-82
2022/04/12 05:04:31;;;;;;;2.83;1.20;;;8.40;69.10;;;;;;5003838;28;20070;-83
2022/04/12 05:06:58;;;;;;;2.03;1.10;;;8.40;69.10;;;;;;5000056;28;20128;-83
2022/04/12 05:09:25;;;;;;;2.97;1.00;;;8.40;69.10;;;;;;5005756;28;20144;-83
2022/04/12 05:11:52;;;;;;;2.20;0.90;;;8.40;69.10;;;;;;4980564;28;20129;-82
2022/04/12 05:14:19;;;;;;;2.95;0.88;;;8.40;69.20;;;;;;5004341;28;20148;-83
2022/04/12 05:16:46;;;;;;;1.73;0.90;;;8.50;69.30;;;;;;4996888;28;20057;-83
2022/04/12 05:19:13;;;;;;;1.75;0.70;;;8.50;69.20;;;;;;4980950;28;20207;-83
2022/04/12 05:21:40;;;;;;;1.90;0.80;;;8.50;69.30;;;;;;5003487;28;20045;-83
2022/04/12 05:24:07;;;;;;;2.63;1.00;;;8.50;69.30;;;;;;5009032;28;20489;-83
2022/04/12 05:26:35;;;;;;;3.03;1.55;;;8.50;69.20;;;;;;4997776;28;20178;-83
2022/04/12 05:29:02;;;;;;;2.95;1.20;;;8.60;69.30;;;;;;5005055;28;20052;-83
2022/04/12 05:31:29;;;;;;;1.88;0.90;;;8.60;69.20;;;;;;4999596;28;20065;-79
2022/04/12 05:33:59;;;;;;;2.28;0.90;;;8.60;69.30;;;;;;5019458;28;20061;-79
2022/04/12 05:36:26;;;;;;;1.50;0.75;;;8.60;69.20;;;;;;4987369;28;20053;-79
2022/04/12 05:38:56;;;;;;;2.47;1.05;;;8.60;69.20;;;;;;4980477;28;20052;-79
2022/04/12 05:41:24;;;;;;;2.03;0.82;;;8.70;69.30;;;;;;4996915;28;20046;-79
2022/04/12 05:43:50;;;;;;;2.50;1.10;;;8.70;69.20;;;;;;4982228;28;20141;-79
2022/04/12 05:46:20;;;;;;;1.77;0.85;;;8.80;69.10;;;;;;5000879;28;20038;-79
2022/04/12 05:48:48;;;;;;;1.83;0.80;;;8.80;69.00;;;;;;4996525;28;20046;-79
2022/04/12 05:51:15;;;;;;;3.17;1.10;;;8.80;68.90;;;;;;4990834;28;20074;-79
2022/04/12 05:53:42;;;;;;;1.92;0.77;;;8.90;69.00;;;;;;4990952;28;20042;-79
2022/04/12 05:56:09;;;;;;;2.33;0.80;;;8.90;68.90;;;;;;4975945;28;20042;-79
2022/04/12 05:58:39;;;;;;;1.73;0.80;;;9.00;68.90;;;;;;4987179;28;20506;-83
2022/04/12 06:01:06;;;;;;;2.88;1.13;;;9.00;68.90;;;;;;4967416;28;20777;-83
2022/04/12 06:03:34;;;;;;;2.50;1.20;;;9.00;68.90;;;;;;4979256;28;20066;-83
2022/04/12 06:06:01;;;;;;;1.77;0.70;;;9.00;68.80;;;;;;4981504;28;20046;-83
2022/04/12 06:08:28;;;;;;;2.75;1.00;;;9.10;68.90;;;;;;4980925;28;20056;-83
2022/04/12 06:10:55;;;;;;;1.85;0.90;;;9.10;68.90;;;;;;4995029;28;20042;-83
2022/04/12 06:13:22;;;;;;;2.20;0.90;;;9.10;68.90;;;;;;4965504;28;20050;-83
2022/04/12 06:15:49;;;;;;;1.95;1.00;;;9.20;68.90;;;;;;4975182;28;20494;-83
2022/04/12 06:18:16;;;;;;;2.33;1.10;;;9.20;68.80;;;;;;4961299;28;20108;-83
2022/04/12 06:20:44;;;;;;;2.28;1.10;;;9.20;68.80;;;;;;4992460;28;20134;-83
2022/04/12 06:23:11;;;;;;;2.90;1.10;;;9.20;68.70;;;;;;4982472;28;20121;-83
2022/04/12 06:25:38;;;;;;;3.08;1.17;;;9.20;68.70;;;;;;4990076;28;20042;-83
2022/04/12 06:28:07;;;;;;;3.78;2.13;;;9.20;68.80;;;;;;4988774;28;20049;-83
2022/04/12 06:30:34;;;;;;;3.47;1.30;;;9.20;68.70;;;;;;4968082;28;20051;-83
2022/04/12 06:33:01;;;;;;;1.85;0.80;;;9.20;68.80;;;;;;4975198;28;20406;-83
2022/04/12 06:35:29;;;;;;;3.58;1.30;;;9.20;68.80;;;;;;4985455;28;20042;-83
2022/04/12 06:37:56;;;;;;;3.20;1.60;;;9.20;68.80;;;;;;4983701;28;20093;-83
2022/04/12 06:40:24;;;;;;;3.58;1.25;;;9.20;68.80;;;;;;4994175;28;20058;-83
2022/04/12 06:42:52;;;;;;;2.65;1.17;;;9.20;68.80;;;;;;4972892;28;20088;-79
2022/04/12 06:45:20;;;;;;;4.47;1.20;;;9.20;68.80;;;;;;4969115;28;20920;-80
2022/04/12 06:47:58;;;;;;;3.10;1.38;;;9.20;68.80;;;;;;4993908;28;20049;-79
2022/04/12 06:50:27;;;;;;;1.88;0.93;;;9.40;68.80;;;;;;4980053;28;20047;-80
2022/04/12 06:52:56;;;;;;;2.65;1.20;;;9.50;68.70;;;;;;5002778;28;20462;-79
2022/04/12 06:55:23;;;;;;;2.97;1.33;;;9.60;68.40;;;;;;4994741;28;20490;-82
2022/04/12 06:57:51;;;;;;;3.35;1.50;;;9.70;68.30;;;;;;4994825;28;20042;-79
2022/04/12 07:00:21;;;;;;;2.88;1.73;;;9.80;68.00;;;;;;4999889;28;20052;-81
2022/04/12 07:02:49;;;;;;;3.40;1.58;;;9.90;67.80;;;;;;4984160;28;20045;-82
2022/04/12 07:05:17;;;;;;;2.60;1.63;;;10.00;67.70;;;;;;5008048;28;20141;-82
2022/04/12 07:07:45;;;;;;;3.05;1.70;;;10.10;67.60;;;;;;4979395;28;20080;-83
2022/04/12 07:10:15;;;;;;;3.33;1.80;;;10.10;67.50;;;;;;5011743;28;20034;-83
2022/04/12 07:12:43;;;;;;;3.63;1.75;;;10.10;67.50;;;;;;4995575;28;20046;-83
2022/04/12 07:15:11;;;;;;;3.08;1.50;;;10.10;67.60;;;;;;4979223;28;20069;-83
2022/04/12 07:17:38;;;;;;;2.30;1.25;;;10.10;67.60;;;;;;5002692;28;20490;-83
2022/04/12 07:20:05;;;;;;;4.35;1.90;;;10.10;67.70;;;;;;4995398;28;20034;-83
2022/04/12 07:22:32;;;;;;;3.67;2.13;;;10.10;67.60;;;;;;4985940;28;20495;-83
2022/04/12 07:24:59;;;;;;;3.42;1.52;;;10.20;67.60;;;;;;4990407;28;20042;-83
2022/04/12 07:27:26;;;;;;;2.67;1.35;;;10.30;67.60;;;;;;4993161;28;20445;-83
2022/04/12 07:29:54;;;;;;;3.55;1.42;;;10.40;67.60;;;;;;4990745;28;20095;-84
2022/04/12 07:32:30;;;;;;;4.03;1.67;;;10.40;67.40;;;;;;4995865;28;20046;-85
2022/04/12 07:34:57;;;;;;;3.03;1.38;;;10.60;67.30;;;;;;4994855;28;20141;-84
2022/04/12 07:37:43;;;;;;;3.88;1.40;;;10.70;67.10;;;;;;4992849;28;20137;-83
2022/04/12 07:40:10;;;;;;;2.10;1.00;;;10.90;66.90;;;;;;4999242;28;20353;-83
2022/04/12 07:42:37;;;;;;;1.95;0.90;;;11.00;66.80;;;;;;4999328;28;20045;-81
2022/04/12 07:45:05;;;;;;;3.40;1.30;;;11.20;66.70;;;;;;5001909;28;20104;-82
2022/04/12 07:47:35;;;;;;;2.58;1.45;;;11.30;66.50;;;;;;4982412;28;20400;-82
2022/04/12 07:50:03;;;;;;;2.10;1.10;;;11.50;66.40;;;;;;4988830;28;20821;-84
2022/04/12 07:52:30;;;;;;;2.63;1.20;;;11.50;66.30;;;;;;5015281;28;20397;-83
2022/04/12 07:54:57;;;;;;;2.70;1.48;;;11.60;66.20;;;;;;4999535;28;20049;-83
2022/04/12 07:57:28;;;;;;;2.72;1.25;;;11.70;66.20;;;;;;4982769;28;20073;-84
2022/04/12 07:59:56;;;;;;;2.60;1.20;;;11.90;66.20;;;;;;5005491;28;20046;-84
2022/04/12 08:02:23;;;;;;;2.05;0.90;;;12.00;66.10;;;;;;5002905;28;20149;-85
2022/04/12 08:04:50;;;;;;;2.35;1.10;;;12.10;66.00;;;;;;5010151;28;20394;-85
2022/04/12 08:07:17;;;;;;;2.47;1.10;;;12.20;65.90;;;;;;4982921;28;20453;-85
2022/04/12 08:09:44;;;;;;;2.92;1.23;;;12.40;65.90;;;;;;4999637;28;20417;-85
2022/04/12 08:12:11;;;;;;;2.97;1.30;;;12.50;65.80;;;;;;4999153;28;20095;-85
2022/04/12 08:14:39;;;;;;;3.72;1.23;;;12.60;65.70;;;;;;4998934;28;20108;-83
2022/04/12 08:17:06;;;;;;;2.47;1.10;;;12.70;65.60;;;;;;5000589;28;20502;-82
2022/04/12 08:19:33;;;;;;;3.22;1.13;;;12.90;65.50;;;;;;4984544;28;20048;-82
2022/04/12 08:22:01;;;;;;;3.13;1.23;;;13.00;65.30;;;;;;4981823;28;20085;-82
2022/04/12 08:24:29;;;;;;;3.25;1.42;;;13.20;65.00;;;;;;4996085;28;20529;-82
2022/04/12 08:26:56;;;;;;;3.60;1.80;;;13.40;65.00;;;;;;4997759;28;20046;-82
2022/04/12 08:29:23;;;;;;;3.65;1.30;;;13.50;64.70;;;;;;4982440;28;20046;-83
2022/04/12 08:31:50;;;;;;;2.30;1.02;;;13.50;64.40;;;;;;4981800;28;20045;-85
2022/04/12 08:34:17;;;;;;;7.50;1.25;;;13.70;64.40;;;;;;4998677;28;20049;-85
2022/04/12 08:36:44;;;;;;;2.17;1.10;;;13.80;64.30;;;;;;5005820;28;20045;-85
2022/04/12 08:39:13;;;;;;;4.72;1.20;;;13.90;64.20;;;;;;4990236;28;20042;-84
2022/04/12 08:41:40;;;;;;;2.83;1.00;;;14.00;64.10;;;;;;4998954;28;20060;-84
2022/04/12 08:44:08;;;;;;;2.45;0.90;;;14.10;64.00;;;;;;4981408;28;20046;-85
2022/04/12 08:46:38;;;;;;;2.85;1.25;;;14.20;63.80;;;;;;4982378;28;20054;-84
2022/04/12 08:49:05;;;;;;;3.63;1.40;;;14.30;63.70;;;;;;4998607;28;20042;-84
2022/04/12 08:51:34;;;;;;;3.33;1.10;;;14.40;63.70;;;;;;4982127;28;20112;-86
2022/04/12 08:54:01;;;;;;;3.05;1.35;;;14.50;63.70;;;;;;4998676;28;20092;-85
2022/04/12 08:56:29;;;;;;;3.25;1.52;;;14.60;63.60;;;;;;5015680;28;20041;-83
2022/04/12 08:58:57;;;;;;;3.58;1.30;;;14.60;63.40;;;;;;4997377;28;20137;-85
2022/04/12 09:01:41;;;;;;;2.88;1.27;;;14.70;64.00;;;;;;4988527;28;20038;-85
2022/04/12 09:04:10;;;;;;;2.88;1.38;;;14.70;63.40;;;;;;4995426;28;20518;-85
2022/04/12 09:06:51;;;;;;;4.55;1.42;;;14.80;63.50;;;;;;4998391;28;20046;-86
2022/04/12 09:09:23;;;;;;;4.90;1.52;;;14.90;63.30;;;;;;4995105;28;20097;-86
2022/04/12 09:12:08;;;;;;;5.43;2.00;;;15.00;63.20;;;;;;5002287;28;20046;-85
2022/04/12 09:14:52;;;;;;;2.67;1.55;;;15.00;63.10;;;;;;4997694;28;20042;-84
2022/04/12 09:17:29;;;;;;;3.80;1.70;;;15.00;63.10;;;;;;5003479;28;20108;-82
2022/04/12 09:19:56;;;;;;;2.63;1.35;;;14.90;63.20;;;;;;5001568;28;20482;-84
2022/04/12 09:22:25;;;;;;;4.85;1.85;;;14.90;63.30;;;;;;4998976;28;20050;-85
2022/04/12 09:24:57;;;;;;;3.13;1.60;;;15.00;63.20;;;;;;5008353;28;20120;-86
2022/04/12 09:27:27;;;;;;;4.95;1.60;;;15.00;63.10;;;;;;4996523;28;20093;-84
2022/04/12 09:29:55;;;;;;;4.45;1.80;;;15.10;63.10;;;;;;4997031;28;20042;-85
2022/04/12 09:32:24;;;;;;;4.35;1.73;;;15.20;63.10;;;;;;4980937;28;20073;-85
2022/04/12 09:34:52;;;;;;;5.40;1.50;;;15.30;63.10;;;;;;4980936;28;20099;-86
2022/04/12 09:37:21;;;;;;;5.05;1.55;;;15.30;62.90;;;;;;4997199;28;20042;-86
2022/04/12 09:40:01;;;;;;;3.78;1.77;;;15.40;63.00;;;;;;4997273;28;20181;-86
2022/04/12 09:42:54;;;;;;;4.60;1.52;;;15.50;62.80;;;;;;4999783;28;20427;-86
2022/04/12 09:45:27;;;;;;;2.83;1.42;;;15.60;62.70;;;;;;4990359;28;20069;-86
2022/04/12 09:48:15;;;;;;;3.42;1.75;;;15.70;62.70;;;;;;4987580;28;20077;-85
2022/04/12 09:51:03;;;;;;;3.95;1.80;;;15.70;62.70;;;;;;4976468;28;20144;-86
2022/04/12 09:53:38;;;;;;;3.90;2.13;;;15.90;62.60;;;;;;4991113;28;20038;-86
2022/04/12 09:56:22;;;;;;;3.30;1.90;;;16.00;62.40;;;;;;4990349;28;20129;-86
2022/04/12 09:58:55;;;;;;;3.67;1.70;;;16.10;62.20;;;;;;4983718;28;20049;-86
2022/04/12 10:01:23;;;;;;;6.00;2.20;;;16.20;62.10;;;;;;5005860;28;20042;-84
2022/04/12 10:03:58;;;;;;;4.22;1.70;;;16.30;61.90;;;;;;4990848;28;20124;-84
2022/04/12 10:06:27;;;;;;;3.95;2.00;;;16.50;61.70;;;;;;4984645;28;20401;-84
2022/04/12 10:08:56;;;;;;;4.10;2.00;;;16.60;61.40;;;;;;4996403;28;20037;-83
2022/04/12 10:11:24;;;;;;;3.20;1.70;;;16.70;61.40;;;;;;4993595;28;20052;-85
2022/04/12 10:13:51;;;;;;;4.45;2.22;;;16.80;61.20;;;;;;5005692;28;20046;-84
2022/04/12 10:16:21;;;;;;;4.30;1.90;;;17.00;60.90;;;;;;4996253;28;20608;-84
2022/04/12 10:18:49;;;;;;;4.47;2.05;;;17.10;61.30;;;;;;4995780;28;20136;-84
2022/04/12 10:21:16;;;;;;;5.13;2.08;;;17.10;60.70;;;;;;5010387;28;20042;-84
2022/04/12 10:23:53;;;;;;;3.20;1.48;;;17.10;60.80;;;;;;4996410;28;20038;-84
2022/04/12 10:26:22;;;;;;;3.78;2.13;;;17.10;61.00;;;;;;5007512;28;20167;-84
2022/04/12 10:29:03;;;;;;;3.47;1.50;;;17.10;61.60;;;;;;4993370;28;20427;-84
2022/04/12 10:31:32;;;;;;;3.72;1.75;;;17.20;60.90;;;;;;4995630;28;20045;-81
2022/04/12 10:34:14;;;;;;;3.90;1.60;;;17.30;61.70;;;;;;4980750;28;20080;-82
2022/04/12 10:37:04;;;;;;;4.05;1.70;;;17.50;60.80;;;;;;4996212;28;20045;-83
2022/04/12 10:40:04;;;;;;;3.75;1.42;;;17.80;60.00;;;;;;4998537;28;20038;-79
2022/04/12 10:42:33;;;;;;;4.55;1.77;;;18.00;59.60;;;;;;4986671;28;20054;-84
2022/04/12 10:45:04;;;;;;;3.33;1.63;;;18.10;59.40;;;;;;4979031;28;20053;-84
2022/04/12 10:47:42;;;;;;;3.17;1.40;;;18.40;59.10;;;;;;4987302;28;20052;-84
2022/04/12 10:50:12;;;;;;;4.20;1.95;;;18.90;58.00;;;;;;4980335;28;20073;-84
2022/04/12 10:52:50;;;;;;;5.88;2.05;;;19.20;57.50;;;;;;4966471;28;20050;-84
2022/04/12 10:55:20;;;;;;;3.85;1.60;;;19.30;57.10;;;;;;5013971;28;20125;-84
2022/04/12 10:57:47;;;;;;;4.00;1.60;;;19.40;57.00;;;;;;4998737;28;20049;-84
2022/04/12 11:00:21;;;;;;;4.32;1.80;;;19.60;56.70;;;;;;4979659;28;20298;-85
2022/04/12 11:02:55;;;;;;;3.65;1.73;;;19.90;56.30;;;;;;4997506;28;20096;-82
2022/04/12 11:05:42;;;;;;;4.03;1.83;;;20.10;55.80;;;;;;5012109;28;20052;-81
2022/04/12 11:08:15;;;;;;;4.00;1.73;;;20.20;55.50;;;;;;4999190;28;20124;-82
2022/04/12 11:11:04;;;;;;;3.42;1.45;;;19.70;55.90;;;;;;5001994;28;20371;-81
2022/04/12 11:13:32;;;;;;;3.67;1.60;;;19.40;56.70;;;;;;4988769;28;20137;-82
2022/04/12 11:16:12;;;;;;;3.53;1.30;;;19.10;57.40;;;;;;4984767;28;20042;-84
2022/04/12 11:18:57;;;;;;;3.78;1.33;;;18.90;57.80;;;;;;4995452;28;20070;-83
2022/04/12 11:21:56;;;;;;;3.75;1.50;;;18.90;58.00;;;;;;5006303;28;20448;-82
2022/04/12 11:24:26;;;;;;;3.25;1.30;;;19.00;58.00;;;;;;5009638;28;20077;-82
2022/04/12 11:27:14;;;;;;;2.92;1.00;;;18.90;58.10;;;;;;5002209;28;20042;-82
2022/04/12 11:29:42;;;;;;;3.03;1.10;;;18.90;58.10;;;;;;5004633;28;20344;-83
2022/04/12 11:32:13;;;;;;;2.92;1.17;;;18.80;58.80;;;;;;4994930;28;20105;-82
2022/04/12 11:34:40;;;;;;;2.05;0.85;;;18.90;58.30;;;;;;5011494;28;20065;-83
2022/04/12 11:37:09;;;;;;;3.90;0.90;;;19.00;58.20;;;;;;4995370;28;20140;-83
2022/04/12 11:39:42;;;;;;;2.90;1.08;;;19.10;57.90;;;;;;4995087;28;20133;-83
2022/04/12 11:42:09;;;;;;;;;;;19.40;57.60;;;;;;4995390;28;20133;-83
2022/04/12 11:44:37;;;;;;;4.85;1.77;;;20.20;56.70;;;;;;5001703;28;19928;-84
2022/04/12 11:47:10;;;;;;;4.40;1.20;;;20.50;55.70;;;;;;4991338;28;20042;-81
2022/04/12 11:49:38;;;;;;;2.70;1.23;;;20.60;55.20;;;;;;4999474;28;20057;-82
2022/04/12 11:52:07;;;;;;;2.75;1.10;;;20.80;55.00;;;;;;5018712;28;20053;-81
2022/04/12 11:54:40;;;;;;;3.65;0.90;;;21.10;54.70;;;;;;4999699;28;20048;-81
2022/04/12 11:57:13;;;;;;;2.38;0.80;;;21.60;54.10;;;;;;4999017;28;20046;-82
2022/04/12 11:59:44;;;;;;;3.63;1.33;;;22.00;53.50;;;;;;5006344;28;20052;-81
2022/04/12 12:02:14;;;;;;;3.72;1.20;;;22.40;52.80;;;;;;5004674;28;20045;-82
2022/04/12 12:05:06;;;;;;;3.78;1.40;;;22.50;52.40;;;;;;5014709;28;20037;-82
2022/04/12 12:07:36;;;;;;;3.47;1.15;;;22.50;52.30;;;;;;5000526;28;20069;-82
2022/04/12 12:10:12;;;;;;;2.15;1.23;;;22.50;52.20;;;;;;5002578;28;20053;-82
2022/04/12 12:12:47;;;;;;;3.35;1.45;;;22.20;52.30;;;;;;4990696;28;20042;-81
2022/04/12 12:15:27;;;;;;;2.95;1.05;;;21.70;52.80;;;;;;4993873;28;20050;-81
2022/04/12 12:17:57;;;;;;;3.72;1.10;;;21.20;53.40;;;;;;4994967;28;20096;-81
2022/04/12 12:20:26;;;;;;;3.05;1.00;;;20.90;53.90;;;;;;5004717;28;20413;-79
2022/04/12 12:22:57;;;;;;;3.85;1.52;;;20.80;54.30;;;;;;5004087;28;20049;-79
2022/04/12 12:25:55;;;;;;;3.03;1.10;;;20.70;54.40;;;;;;5020861;28;20042;-80
2022/04/12 12:28:25;;;;;;;3.97;1.45;;;20.60;54.30;;;;;;5010803;28;20072;-79
2022/04/12 12:31:03;;;;;;;4.13;1.55;;;20.50;54.70;;;;;;4998070;28;20042;-81
2022/04/12 12:33:43;;;;;;;3.25;1.20;;;20.50;54.60;;;;;;4998734;28;20104;-81
2022/04/12 12:36:18;;;;;;;3.35;1.27;;;20.50;54.60;;;;;;4997844;28;20068;-78
2022/04/12 12:38:45;;;;;;;2.55;0.90;;;20.50;54.50;;;;;;4980537;28;20059;-80
2022/04/12 12:41:29;;;;;;;3.42;1.10;;;20.50;54.60;;;;;;4978148;28;20085;-76
2022/04/12 12:43:59;;;;;;;3.35;0.95;;;20.60;54.30;;;;;;4988597;28;20050;-77
2022/04/12 12:46:27;;;;;;;4.05;1.00;;;20.60;54.40;;;;;;4985137;28;20447;-77
2022/04/12 12:49:09;;;;;;;3.85;1.55;;;20.60;54.30;;;;;;5009687;28;20064;-76
2022/04/12 12:51:37;;;;;;;3.50;1.25;;;20.60;54.00;;;;;;4989631;28;20061;-76
2022/04/12 12:54:07;;;;;;;3.80;1.17;;;20.60;54.20;;;;;;4993017;28;20050;-76
2022/04/12 12:56:41;;;;;;;3.45;1.48;;;20.70;54.30;;;;;;4993646;28;20121;-77
2022/04/12 12:59:36;;;;;;;2.83;1.20;;;20.80;54.00;;;;;;5009556;28;20042;-78
2022/04/12 13:02:11;;;;;;;4.20;1.48;;;20.80;54.00;;;;;;4993241;28;20499;-81
2022/04/12 13:04:52;;;;;;;2.58;1.25;;;20.80;53.90;;;;;;4984824;28;20090;-82
2022/04/12 13:07:19;;;;;;;2.53;1.33;;;20.60;53.90;;;;;;4975379;28;20330;-82
2022/04/12 13:09:50;;;;;;;3.30;1.48;;;20.60;54.10;;;;;;4994386;28;20061;-77